Latest Weather Observations for Mount Boyce

IDN60901

Issued at 9:31 am EST Thursday 1 October 2020 (issued every 10 minutes, with the page automatically refreshed every 10 minutes)

About weather observations | Map of Sydney area stations | Latest observations for Sydney area | Other Formats
Station Details ID: 063292 Name: MOUNT BOYCE AWS Lat: -33.62 Lon: 150.27 Height: 1080.0 m
Data from the previous 72 hours. | See also: Recent months at Mount Boyce
Date/Time
EST
Temp
°C
App
Temp
°C
Dew
Point
°C
Rel
Hum
%
Delta-T
°C
Wind Press
QNH
hPa
Press
MSL
hPa
Rain since
9am
mm
Dir  Spd
km/h
Gust
km/h
Spd
kts
Gust
kts
01/09:30am 11.0 4.3 5.7 70 2.6 WSW 30 46 16 25 - - 0.0
01/09:00am 10.3 3.5 5.3 71 2.4 W 30 48 16 26 - - 1.8
01/08:47am 9.9 3.2 5.7 75 2.1 WSW 30 44 16 24 - - 1.8
01/08:30am 10.0 5.7 6.9 81 1.6 WSW 19 26 10 14 - - 1.8
01/08:23am 10.2 5.7 7.1 81 1.6 W 20 28 11 15 - - 1.8
01/08:00am 9.8 4.6 7.2 84 1.3 W 24 39 13 21 - - 1.8
01/07:30am 9.3 4.2 7.7 90 0.8 W 24 39 13 21 - - 1.8
01/07:00am 8.5 2.7 7.9 96 0.3 W 28 39 15 21 - - 1.8
01/06:47am 8.3 3.2 7.7 96 0.3 WSW 24 35 13 19 - - 1.6
01/06:35am 8.3 2.1 7.9 97 0.2 W 30 48 16 26 - - 1.6
01/06:30am 8.2 1.6 7.9 98 0.2 W 32 48 17 26 - - 1.6
01/06:27am 8.1 1.5 7.8 98 0.2 W 32 46 17 25 - - 1.6
01/06:13am 7.8 1.9 7.7 99 0.1 WSW 28 46 15 25 - - 1.6
01/06:00am 7.3 2.4 7.0 98 0.1 WSW 22 33 12 18 - - 1.6
01/05:49am 7.3 2.0 6.9 97 0.2 WSW 24 41 13 22 - - 1.6
01/05:44am 7.4 1.3 6.8 96 0.3 WSW 28 41 15 22 - - 1.6
01/05:31am 7.3 0.2 6.2 93 0.5 W 33 56 18 30 - - 1.6
01/05:30am 7.2 0.0 6.1 93 0.5 WSW 33 56 18 30 - - 1.6
01/05:03am 8.4 1.1 7.2 92 0.6 WSW 35 63 19 34 - - 0.4
01/05:00am 9.5 3.1 8.4 93 0.6 WSW 32 50 17 27 - - 0.2
01/04:30am 9.7 2.7 8.3 91 0.7 W 35 56 19 30 - - 0.2
01/04:00am 9.9 3.4 8.2 89 0.9 W 32 57 17 31 - - 0.2
01/03:56am 9.8 3.7 8.1 89 0.9 W 30 57 16 31 - - 0.2
01/03:30am 9.7 3.9 7.8 88 1.0 W 28 41 15 22 - - 0.2
01/03:05am 9.5 2.9 7.6 88 1.0 W 32 50 17 27 - - 0.2
01/03:00am 9.5 2.7 7.1 85 1.2 W 32 50 17 27 - - 0.2
01/02:55am 9.6 2.8 7.0 84 1.3 W 32 50 17 27 - - 0.2
01/02:30am 9.4 2.7 7.3 87 1.1 W 32 50 17 27 - - 0.2
01/02:19am 9.4 3.5 7.3 87 1.1 W 28 46 15 25 - - 0.2
01/02:14am 9.3 4.1 7.3 87 1.0 W 24 41 13 22 - - 0.2
01/02:00am 9.1 3.5 7.2 88 1.0 WNW 26 43 14 23 - - 0.2
01/01:43am 9.2 2.5 7.2 87 1.0 WNW 32 57 17 31 - - 0.2
01/01:30am 9.0 2.6 7.1 88 1.0 WNW 30 50 16 27 - - 0.2
01/01:20am 8.9 2.9 7.2 89 0.9 WNW 28 52 15 28 - - 0.2
01/01:00am 8.8 4.0 7.3 90 0.8 WNW 22 41 12 22 - - 0.2
01/12:59am 8.8 4.0 7.3 90 0.8 WNW 22 41 12 22 - - 0.2
01/12:30am 8.8 3.6 7.4 91 0.7 WNW 24 43 13 23 - - 0.2
01/12:00am 8.5 4.6 7.3 92 0.6 WNW 17 32 9 17 - - 0.2
 
Date/Time
EST
Temp
°C
App
Temp
°C
Dew
Point
°C
Rel
Hum
%
Delta-T
°C
Wind Press
QNH
hPa
Press
MSL
hPa
Rain since
9am
mm
Dir  Spd
km/h
Gust
km/h
Spd
kts
Gust
kts
30/11:30pm 8.6 5.0 6.6 87 1.0 W 15 26 8 14 - - 0.0
30/11:00pm 8.5 4.9 6.6 88 0.9 W 15 30 8 16 - - 0.0
30/10:30pm 8.5 4.2 6.8 89 0.8 WSW 19 33 10 18 - - 0.0
30/10:00pm 8.2 4.2 6.8 91 0.7 WSW 17 28 9 15 - - 0.0
30/09:30pm 8.5 6.0 6.6 88 0.9 W 9 20 5 11 - - 0.0
30/09:07pm 8.9 6.1 6.9 87 1.0 WNW 11 24 6 13 - - 0.0
30/09:00pm 8.8 5.6 6.9 88 0.9 W 13 24 7 13 - - 0.0
30/08:30pm 9.0 4.7 7.1 88 1.0 W 19 30 10 16 - - 0.0
30/08:00pm 8.8 5.6 6.9 88 0.9 W 13 22 7 12 - - 0.0
30/07:30pm 8.7 6.5 6.3 85 1.2 WNW 7 17 4 9 - - 0.0
30/07:21pm 9.0 6.5 6.4 84 1.3 W 9 17 5 9 - - 0.0
30/07:00pm 8.9 6.7 6.3 84 1.3 NW 7 15 4 8 - - 0.0
30/06:30pm 9.2 6.7 6.5 83 1.3 WNW 9 15 5 8 - - 0.0
30/06:00pm 9.6 7.0 6.3 80 1.6 WNW 9 20 5 11 - - 0.0
30/05:30pm 10.4 7.1 6.4 76 2.0 NW 13 28 7 15 - - 0.0
30/05:03pm 12.2 8.3 7.1 71 2.6 WNW 17 39 9 21 - - 0.0
30/05:00pm 12.2 8.4 7.5 73 2.4 WNW 17 28 9 15 - - 0.0
30/04:30pm 10.7 7.6 7.4 80 1.7 WNW 13 24 7 13 - - 0.0
30/04:21pm 10.4 7.2 6.9 79 1.8 WNW 13 28 7 15 - - 0.0
30/04:19pm 10.5 7.3 7.0 79 1.8 WNW 13 28 7 15 - - 0.0
30/04:00pm 10.5 7.4 7.2 80 1.7 NW 13 22 7 12 - - 0.0
30/03:30pm 10.1 6.9 7.0 81 1.6 WNW 13 20 7 11 - - 0.0
30/03:13pm 10.5 7.3 6.8 78 1.9 WNW 13 28 7 15 - - 0.0
30/03:00pm 10.6 6.6 6.7 77 2.0 NW 17 35 9 19 - - 0.0
30/02:30pm 11.6 7.6 6.7 72 2.5 WNW 17 33 9 18 - - 0.0
30/02:00pm 12.8 9.5 6.6 66 3.2 WNW 13 28 7 15 - - 0.0
30/01:30pm 13.4 10.6 7.0 65 3.3 W 11 22 6 12 - - 0.0
30/01:00pm 11.7 9.0 7.2 74 2.3 WNW 11 20 6 11 - - 0.0
30/12:30pm 12.0 8.8 6.9 71 2.6 WNW 13 19 7 10 - - 0.0
30/12:00pm 11.8 8.4 5.9 67 2.9 W 13 26 7 14 - - 0.0
30/11:30am 12.4 8.3 6.2 66 3.1 WNW 17 33 9 18 - - 0.0
30/11:00am 12.5 8.3 5.9 64 3.3 W 17 33 9 18 - - 0.0
30/10:30am 12.1 8.7 5.7 65 3.2 W 13 26 7 14 - - 0.0
30/10:00am 11.5 9.1 5.2 65 3.1 WNW 7 19 4 10 - - 0.0
30/09:30am 10.5 9.5 5.7 72 2.4 CALM 0 0 0 0 - - 0.0
30/09:00am 11.6 8.8 5.0 64 3.2 NE 9 15 5 8 - - 0.0
30/08:30am 11.0 7.4 5.1 67 2.9 NE 13 20 7 11 - - 0.0
30/08:00am 9.6 6.7 4.8 72 2.3 NE 9 13 5 7 - - 0.0
30/07:30am 8.9 6.6 5.6 80 1.6 NE 7 11 4 6 - - 0.0
30/07:00am 7.8 4.9 4.7 81 1.5 NE 9 17 5 9 - - 0.0
30/06:30am 6.8 4.3 4.6 86 1.0 NE 7 11 4 6 - - 0.0
30/06:00am 5.9 2.6 4.5 91 0.6 ENE 11 15 6 8 - - 0.0
30/05:30am 5.7 2.0 4.5 92 0.6 ENE 13 17 7 9 - - 0.0
30/05:00am 5.6 2.3 4.7 94 0.4 ENE 11 15 6 8 - - 0.0
30/04:30am 5.3 2.0 4.4 94 0.4 ENE 11 17 6 9 - - 0.0
30/04:00am 5.5 2.2 4.6 94 0.4 ENE 11 17 6 9 - - 0.0
30/03:30am 5.6 2.4 4.9 95 0.3 ENE 11 17 6 9 - - 0.0
30/03:00am 5.7 2.5 5.0 95 0.3 ENE 11 17 6 9 - - 0.0
30/02:30am 5.9 2.4 5.3 96 0.3 ENE 13 19 7 10 - - 0.0
30/02:00am 5.8 2.3 5.4 97 0.2 NE 13 22 7 12 - - 0.0
30/01:30am 5.5 1.9 5.1 97 0.2 NE 13 17 7 9 - - 0.0
30/01:00am 5.4 1.8 4.8 96 0.3 ENE 13 19 7 10 - - 0.0
30/12:30am 5.6 2.0 5.0 96 0.3 ENE 13 19 7 10 - - 0.0
30/12:00am 5.8 1.8 5.1 95 0.3 NE 15 24 8 13 - - 0.0
 
Date/Time
EST
Temp
°C
App
Temp
°C
Dew
Point
°C
Rel
Hum
%
Delta-T
°C
Wind Press
QNH
hPa
Press
MSL
hPa
Rain since
9am
mm
Dir  Spd
km/h
Gust
km/h
Spd
kts
Gust
kts
29/11:30pm 5.7 2.4 4.8 94 0.4 ENE 11 17 6 9 - - 0.0
29/11:00pm 6.3 2.8 5.4 94 0.4 NE 13 20 7 11 - - 0.0
29/10:30pm 6.2 3.0 5.2 93 0.5 ENE 11 17 6 9 - - 0.0
29/10:00pm 6.6 3.4 5.2 91 0.7 ENE 11 17 6 9 - - 0.0
29/09:30pm 7.1 4.0 5.6 90 0.7 ENE 11 19 6 10 - - 0.0
29/09:00pm 7.1 3.9 5.3 88 0.9 ENE 11 15 6 8 - - 0.0
29/08:30pm 7.3 4.1 5.3 87 0.9 ENE 11 17 6 9 - - 0.0
29/08:00pm 7.5 4.3 5.3 86 1.0 ENE 11 17 6 9 - - 0.0
29/07:30pm 7.8 4.6 5.1 83 1.3 ENE 11 15 6 8 - - 0.0
29/07:00pm 8.1 4.8 2.6 68 2.5 ENE 9 13 5 7 - - 0.0
29/06:30pm 8.4 5.1 2.4 66 2.7 ENE 9 13 5 7 - - 0.0
29/06:00pm 9.4 6.1 2.7 63 3.0 ENE 9 13 5 7 - - 0.0
29/05:30pm 10.7 7.5 3.0 59 3.6 ENE 9 13 5 7 - - 0.0
29/05:00pm 11.9 8.7 2.9 54 4.2 ENE 9 15 5 8 - - 0.0
29/04:30pm 13.0 9.7 2.6 49 4.9 E 9 19 5 10 - - 0.0
29/04:00pm 14.0 11.3 2.9 47 5.3 ENE 6 13 3 7 - - 0.0
29/03:30pm 14.6 11.9 2.5 44 5.7 ENE 6 15 3 8 - - 0.0
29/03:00pm 14.9 12.1 3.1 45 5.7 E 7 15 4 8 - - 0.0
29/02:30pm 15.0 11.9 3.8 47 5.5 ENE 9 15 5 8 - - 0.0
29/02:00pm 14.7 11.5 2.9 45 5.6 E 9 15 5 8 - - 0.0
29/01:30pm 15.5 12.2 2.3 41 6.3 NE 9 15 5 8 - - 0.0
29/01:00pm 15.5 12.5 2.3 41 6.3 N 7 17 4 9 - - 0.0
29/12:30pm 14.5 10.8 2.4 44 5.7 NNE 11 19 6 10 - - 0.0
29/12:00pm 13.7 10.8 2.6 47 5.2 ENE 7 13 4 7 - - 0.0
29/11:30am 12.5 9.2 2.4 50 4.7 ENE 9 15 5 8 - - 0.0
29/11:00am 12.1 8.4 2.3 51 4.5 NE 11 19 6 10 - - 0.0
29/10:30am 11.7 8.5 3.2 56 4.0 E 9 17 5 9 - - 0.0
29/10:00am 11.0 7.9 3.5 60 3.5 NE 9 19 5 10 - - 0.0
29/09:30am 10.5 7.3 3.3 61 3.4 NE 9 17 5 9 - - 0.0
29/09:11am 9.0 6.4 4.2 72 2.3 N 7 13 4 7 - - 0.0
29/09:00am 8.4 5.7 3.5 71 2.3 NNE 7 11 4 6 - - 0.0
29/08:30am 7.8 5.3 4.0 77 1.8 NE 6 17 3 9 - - 0.0
29/08:23am 7.4 4.7 3.8 78 1.7 NE 7 17 4 9 - - 0.0
29/08:00am 7.3 4.6 3.9 79 1.6 ENE 7 13 4 7 - - 0.0
29/07:49am 6.7 4.6 3.7 81 1.4 ENE 4 11 2 6 - - 0.0
29/07:41am 6.3 3.5 3.1 80 1.4 NE 7 15 4 8 - - 0.0
29/07:30am 6.2 3.7 3.5 83 1.2 NE 6 13 3 7 - - 0.0
29/07:00am 6.0 3.9 3.7 85 1.0 ENE 4 11 2 6 - - 0.0
29/06:57am 5.9 3.4 3.6 85 1.0 ENE 6 11 3 6 - - 0.0
29/06:30am 5.6 3.5 3.9 89 0.8 ENE 4 9 2 5 - - 0.0
29/06:00am 5.5 3.1 4.5 93 0.5 ENE 6 13 3 7 - - 0.0
29/05:30am 5.3 2.3 4.3 93 0.5 ENE 9 15 5 8 - - 0.0
29/05:28am 5.3 2.3 4.3 93 0.5 ENE 9 15 5 8 - - 0.0
29/05:00am 5.3 2.4 4.6 95 0.3 ENE 9 13 5 7 - - 0.0
29/04:30am 5.2 2.7 4.6 96 0.3 ENE 7 13 4 7 - - 0.0
29/04:22am 5.1 2.6 4.5 96 0.3 ENE 7 13 4 7 - - 0.0
29/04:00am 4.8 2.4 4.2 96 0.3 ENE 6 15 3 8 - - 0.0
29/03:38am 4.5 1.5 3.9 96 0.3 ENE 9 13 5 7 - - 0.0
29/03:30am 4.5 1.5 3.9 96 0.3 ENE 9 15 5 8 - - 0.0
29/03:00am 4.2 1.4 3.2 93 0.4 ENE 7 9 4 5 - - 0.0
29/02:30am 4.6 3.2 3.7 94 0.4 CALM 0 0 0 0 - - 0.0
29/02:00am 4.5 3.1 3.6 94 0.4 CALM 0 0 0 0 - - 0.0
29/01:30am 4.2 2.3 3.0 92 0.5 E 2 6 1 3 - - 0.0
29/01:00am 4.8 2.1 3.5 91 0.6 ENE 7 13 4 7 - - 0.0
29/12:30am 5.3 2.7 4.0 91 0.6 ENE 7 13 4 7 - - 0.0
29/12:00am 5.4 2.8 4.4 93 0.5 ENE 7 15 4 8 - - 0.0
 
Date/Time
EST
Temp
°C
App
Temp
°C
Dew
Point
°C
Rel
Hum
%
Delta-T
°C
Wind Press
QNH
hPa
Press
MSL
hPa
Rain since
9am
mm
Dir  Spd
km/h
Gust
km/h
Spd
kts
Gust
kts
28/11:30pm 5.4 2.9 4.5 94 0.4 ENE 7 11 4 6 - - 0.0
28/11:00pm 5.3 2.4 4.6 95 0.3 ENE 9 13 5 7 - - 0.0
28/10:30pm 5.2 2.2 4.3 94 0.4 ENE 9 15 5 8 - - 0.0
28/10:03pm 5.1 1.7 4.1 93 0.5 ENE 11 15 6 8 - - 0.0
28/10:00pm 5.0 1.9 3.8 92 0.5 ENE 9 15 5 8 - - 0.0
28/09:30pm 5.2 2.1 3.4 88 0.8 ENE 9 17 5 9 - - 0.0
28/09:00pm 5.4 2.1 2.2 80 1.4 ENE 9 17 5 9 - - 0.0
28/08:30pm 5.8 2.4 1.9 76 1.7 ENE 9 15 5 8 - - 0.0
28/08:00pm 6.2 2.6 0.9 69 2.2 ENE 9 11 5 6 - - 0.0
28/07:30pm 6.8 3.3 1.1 67 2.4 ENE 9 11 5 6 - - 0.0
28/07:00pm 7.7 4.2 1.3 64 2.8 ENE 9 11 5 6 - - 0.0
28/06:30pm 8.2 4.7 1.4 62 3.0 ENE 9 13 5 7 - - 0.0
28/06:00pm 9.4 6.3 1.6 58 3.5 ENE 7 11 4 6 - - 0.0
28/05:30pm 11.1 7.6 1.1 50 4.5 ENE 9 17 5 9 - - 0.0
28/05:00pm 12.8 9.4 1.8 47 5.0 E 9 17 5 9 - - 0.0
28/04:30pm 13.5 9.9 0.5 41 5.8 SE 9 17 5 9 - - 0.0
28/04:00pm 14.4 10.7 -2.5 31 7.2 W 7 17 4 9 - - 0.0
28/03:30pm 15.1 10.9 -4.2 26 7.9 W 9 17 5 9 - - 0.0
28/03:00pm 13.9 9.9 -5.8 25 7.7 WSW 7 15 4 8 - - 0.0
28/02:30pm 13.9 8.6 -3.4 30 7.2 SW 15 24 8 13 - - 0.0
28/02:00pm 13.4 8.7 -1.7 35 6.5 W 13 20 7 11 - - 0.0
28/01:30pm 13.5 9.5 0.2 40 5.9 WSW 11 20 6 11 - - 0.0
28/01:00pm 12.1 7.6 -0.4 42 5.4 W 13 20 7 11 - - 0.0
28/12:30pm 13.0 10.1 1.4 45 5.3 NW 6 13 3 7 - - 0.0
28/12:00pm 11.4 9.0 -0.4 44 5.1 N 2 11 1 6 - - 0.0
28/11:30am 11.6 8.3 0.4 46 4.9 SW 7 13 4 7 - - 0.0
28/11:00am 9.9 6.1 -0.6 48 4.5 SW 9 17 5 9 - - 0.0
28/10:30am 9.2 5.4 -0.4 51 4.1 WSW 9 17 5 9 - - 0.0
28/10:00am 8.4 4.6 -0.4 54 3.7 WSW 9 15 5 8 - - 0.0

Latest Capital City Observations: Canberra | Sydney | Melbourne | Brisbane | Adelaide | Perth | Hobart | Darwin

Other formats

Comma delimited format used in spreadsheet applications
http://www.bom.gov.au/fwo/IDN60901/IDN60901.94743.axf

JavaScript Object Notation format (JSON) in row-major order
http://www.bom.gov.au/fwo/IDN60901/IDN60901.94743.json

Data quality

Most of these data are generated automatically and are frequently updated. Quality checks on data are not normally performed. It is possible for incorrect values to appear. Refer to information at About Latest Weather Observations and please check the disclaimer before using these data.